Time;durP1;ratioP1;P1;durP2;ratioP2;P2;SDS_P1;SDS_P2;PMS_P1;PMS_P2;Temp;Humidity;BMP_temperature;BMP_pressure;BME280_temperature;BME280_humidity;BME280_pressure;Samples;Min_cycle;Max_cycle;Signal;HPM_P1;HPM_P2
2023/05/06 00:00:25;;;;;;;13.52;9.73;;;;;;;11.48;59.06;95103.56;5023631;28;20405;-74
2023/05/06 00:02:51;;;;;;;11.38;9.10;;;;;;;11.44;59.04;95100.16;5024533;28;20029;-74
2023/05/06 00:05:19;;;;;;;12.82;9.40;;;;;;;11.41;58.80;95115.56;5024268;28;20068;-74
2023/05/06 00:07:45;;;;;;;14.50;9.50;;;;;;;11.38;58.92;95104.66;5024119;28;20488;-74
2023/05/06 00:10:11;;;;;;;12.40;9.35;;;;;;;11.38;59.37;95099.91;5006599;28;20109;-75
2023/05/06 00:12:37;;;;;;;12.25;9.40;;;;;;;11.38;59.27;95104.66;5028381;28;20029;-74
2023/05/06 00:15:03;;;;;;;14.65;10.48;;;;;;;11.36;59.17;95109.84;5031212;28;20037;-74
2023/05/06 00:17:28;;;;;;;15.50;10.23;;;;;;;11.30;59.03;95104.09;5029401;28;20029;-74
2023/05/06 00:19:55;;;;;;;16.58;10.35;;;;;;;11.29;59.31;95102.53;5027992;28;20048;-74
2023/05/06 00:22:20;;;;;;;14.75;9.32;;;;;;;11.28;59.22;95097.47;5027067;28;20033;-74
2023/05/06 00:24:46;;;;;;;11.32;9.60;;;;;;;11.24;59.07;95102.28;5027786;28;20479;-74
2023/05/06 00:27:12;;;;;;;18.27;11.27;;;;;;;11.23;59.15;95103.50;5027577;28;20040;-74
2023/05/06 00:29:37;;;;;;;12.48;9.32;;;;;;;11.19;59.22;95100.88;5028962;28;20397;-74
2023/05/06 00:32:03;;;;;;;13.38;9.18;;;;;;;11.17;59.03;95097.78;5026947;28;20018;-73
2023/05/06 00:34:28;;;;;;;13.60;8.68;;;;;;;11.07;58.88;95085.88;5029298;28;20025;-75
2023/05/06 00:36:53;;;;;;;10.75;8.18;;;;;;;11.12;58.94;95098.31;5027264;28;20037;-73
2023/05/06 00:39:19;;;;;;;10.02;8.27;;;;;;;11.06;58.86;95100.81;5028765;28;20163;-74
2023/05/06 00:41:45;;;;;;;11.45;8.57;;;;;;;11.07;59.15;95098.88;5028367;28;20033;-74
2023/05/06 00:44:10;;;;;;;10.68;8.18;;;;;;;11.00;59.30;95085.28;5027503;28;20026;-75
2023/05/06 00:46:36;;;;;;;11.70;9.13;;;;;;;11.05;59.28;95095.75;5029223;28;20025;-74
2023/05/06 00:49:02;;;;;;;14.80;9.60;;;;;;;11.01;59.33;95098.63;5025506;28;20064;-74
2023/05/06 00:51:27;;;;;;;12.25;9.00;;;;;;;11.01;59.22;95101.38;5027766;28;20666;-76
2023/05/06 00:53:53;;;;;;;10.77;8.55;;;;;;;10.97;59.51;95099.94;5009281;28;20036;-76
2023/05/06 00:56:18;;;;;;;10.32;8.18;;;;;;;10.93;59.44;95094.53;5028588;28;20437;-75
2023/05/06 00:58:44;;;;;;;10.68;8.30;;;;;;;10.88;59.29;95097.81;5026319;28;20035;-74
2023/05/06 01:01:10;;;;;;;11.55;8.38;;;;;;;10.86;59.20;95097.47;5027662;28;20041;-73
2023/05/06 01:03:36;;;;;;;11.75;8.73;;;;;;;10.83;59.42;95099.09;5028512;28;20025;-74
2023/05/06 01:06:08;;;;;;;11.00;9.07;;;;;;;10.82;59.46;95094.81;5026817;28;20037;-74
2023/05/06 01:09:11;;;;;;;12.52;8.57;;;;;;;10.78;59.51;95091.41;5028980;28;20026;-75
2023/05/06 01:11:45;;;;;;;11.80;8.80;;;;;;;10.73;59.79;95097.44;5020692;28;20037;-76
2023/05/06 01:14:10;;;;;;;;;;;;;;;10.71;59.89;95094.31;5026924;28;20029;-74
2023/05/06 01:16:38;;;;;;;10.13;7.88;;;;;;;10.66;59.96;95089.34;5028174;28;19935;-74
2023/05/06 01:19:05;;;;;;;12.82;8.93;;;;;;;10.62;60.09;95088.69;5008574;28;20029;-73
2023/05/06 01:21:33;;;;;;;10.23;8.70;;;;;;;10.62;60.29;95083.97;5031747;28;20021;-74
2023/05/06 01:23:59;;;;;;;12.43;8.50;;;;;;;10.60;60.23;95085.59;5025864;28;20136;-73
2023/05/06 01:26:25;;;;;;;11.07;8.70;;;;;;;10.57;60.63;95081.75;5026819;28;20072;-73
2023/05/06 01:28:51;;;;;;;12.15;9.27;;;;;;;10.56;61.07;95082.19;5009033;28;20531;-74
2023/05/06 01:31:24;;;;;;;10.70;8.52;;;;;;;10.55;60.51;95081.41;5026319;28;20172;-74
2023/05/06 01:34:09;;;;;;;12.13;9.32;;;;;;;10.55;60.47;95088.84;5026447;28;20061;-74
2023/05/06 01:36:43;;;;;;;10.88;8.43;;;;;;;10.53;60.54;95083.81;5024992;28;20022;-74
2023/05/06 01:39:17;;;;;;;13.40;8.95;;;;;;;10.47;60.35;95082.00;5026863;28;20025;-74
2023/05/06 01:41:43;;;;;;;12.82;8.63;;;;;;;10.50;60.69;95089.41;5025205;28;20095;-75
2023/05/06 01:44:10;;;;;;;11.07;8.13;;;;;;;10.51;60.31;95082.69;5009640;28;20021;-74
2023/05/06 01:46:35;;;;;;;10.15;7.93;;;;;;;10.44;60.88;95078.16;5025851;28;20029;-74
2023/05/06 01:49:04;;;;;;;11.18;8.38;;;;;;;10.24;61.48;95077.50;5026823;28;20018;-74
2023/05/06 01:51:32;;;;;;;10.88;8.65;;;;;;;10.25;61.36;95081.78;5026321;28;20138;-74
2023/05/06 01:53:58;;;;;;;11.30;7.95;;;;;;;10.10;61.86;95075.84;5024560;28;20531;-74
2023/05/06 01:56:23;;;;;;;11.45;8.05;;;;;;;10.08;62.03;95081.75;5026468;28;20022;-76
2023/05/06 01:58:49;;;;;;;11.38;8.18;;;;;;;9.99;62.15;95078.88;5007928;28;20029;-75
2023/05/06 02:01:14;;;;;;;9.23;7.93;;;;;;;9.87;62.77;95079.56;5027157;28;20042;-75
2023/05/06 02:03:40;;;;;;;11.13;8.23;;;;;;;9.74;63.36;95073.94;5025081;28;20029;-76
2023/05/06 02:06:05;;;;;;;11.23;8.32;;;;;;;9.78;63.40;95071.91;5026711;28;20484;-75
2023/05/06 02:08:31;;;;;;;9.15;8.15;;;;;;;9.55;64.18;95074.78;5027217;28;20528;-75
2023/05/06 02:10:56;;;;;;;11.50;8.40;;;;;;;9.47;64.14;95068.69;5025600;28;20673;-74
2023/05/06 02:13:21;;;;;;;12.43;7.50;;;;;;;9.27;65.00;95065.22;5027372;28;20101;-75
2023/05/06 02:15:51;;;;;;;10.75;8.25;;;;;;;8.97;66.65;95069.00;5024058;28;20021;-75
2023/05/06 02:18:17;;;;;;;10.15;7.78;;;;;;;9.04;66.37;95066.09;5027879;28;20075;-74
2023/05/06 02:20:43;;;;;;;10.23;7.95;;;;;;;9.21;65.99;95064.16;5025432;28;20029;-74
2023/05/06 02:23:08;;;;;;;10.13;7.38;;;;;;;9.43;65.08;95067.22;5025442;28;20228;-75
2023/05/06 02:25:33;;;;;;;10.52;8.00;;;;;;;9.57;64.51;95077.88;5026188;28;20420;-73
2023/05/06 02:27:59;;;;;;;12.80;8.38;;;;;;;9.52;64.84;95081.16;5028776;28;20022;-74
2023/05/06 02:30:24;;;;;;;10.88;8.95;;;;;;;9.62;64.46;95079.34;5026899;28;20025;-74
2023/05/06 02:32:49;;;;;;;10.63;8.75;;;;;;;9.73;63.88;95079.88;5025088;28;20036;-74
2023/05/06 02:35:15;;;;;;;11.88;8.57;;;;;;;9.78;63.84;95073.88;5027334;28;20339;-74
2023/05/06 02:37:40;;;;;;;10.18;7.75;;;;;;;9.64;64.09;95087.94;5024954;28;20026;-75
2023/05/06 02:40:07;;;;;;;10.45;7.95;;;;;;;9.70;63.66;95084.25;5027060;28;20445;-75
2023/05/06 02:42:33;;;;;;;10.95;8.07;;;;;;;9.80;63.26;95079.69;5023946;28;20041;-75
2023/05/06 02:44:59;;;;;;;10.50;7.93;;;;;;;9.71;63.82;95079.53;5025045;28;20025;-74
2023/05/06 02:47:24;;;;;;;11.45;8.73;;;;;;;9.61;64.11;95081.31;5026069;28;20033;-74
2023/05/06 02:49:49;;;;;;;11.35;8.25;;;;;;;9.65;64.11;95079.28;5025241;28;20071;-74
2023/05/06 02:52:15;;;;;;;11.38;8.50;;;;;;;9.77;63.86;95075.84;5027039;28;20076;-75
2023/05/06 02:54:40;;;;;;;11.60;8.57;;;;;;;9.80;63.55;95083.22;5024276;28;20467;-74
2023/05/06 02:57:06;;;;;;;10.50;8.27;;;;;;;9.56;64.67;95079.06;5026803;28;20029;-74
2023/05/06 02:59:31;;;;;;;12.60;9.27;;;;;;;9.75;63.64;95086.50;5024763;28;20036;-74
2023/05/06 03:01:56;;;;;;;11.40;8.52;;;;;;;9.87;63.22;95092.50;5026308;28;20041;-74
2023/05/06 03:04:22;;;;;;;12.10;8.90;;;;;;;9.89;63.18;95090.88;5025557;28;20057;-75
2023/05/06 03:06:47;;;;;;;11.35;8.07;;;;;;;9.93;62.93;95082.56;5025296;28;20072;-74
2023/05/06 03:09:14;;;;;;;12.23;8.18;;;;;;;9.99;62.41;95091.81;5026240;28;20112;-75
2023/05/06 03:11:39;;;;;;;12.20;8.40;;;;;;;10.03;62.23;95093.25;5023274;28;20022;-74
2023/05/06 03:14:05;;;;;;;12.98;9.15;;;;;;;10.05;62.06;95088.13;5028340;28;20087;-74
2023/05/06 03:16:30;;;;;;;11.55;8.40;;;;;;;10.00;62.04;95091.38;5024225;28;20868;-74
2023/05/06 03:18:56;;;;;;;11.18;8.38;;;;;;;10.08;61.76;95097.47;5026166;28;20030;-74
2023/05/06 03:21:21;;;;;;;13.13;8.85;;;;;;;10.08;61.80;95097.47;5024417;28;20397;-74
2023/05/06 03:23:47;;;;;;;11.57;7.82;;;;;;;10.13;61.75;95102.44;5025421;28;20035;-74
2023/05/06 03:26:12;;;;;;;13.57;9.43;;;;;;;10.10;61.81;95103.31;5024206;28;20090;-75
2023/05/06 03:28:37;;;;;;;10.82;8.68;;;;;;;10.08;61.82;95097.47;5024810;28;20113;-74
2023/05/06 03:31:03;;;;;;;15.00;9.38;;;;;;;10.14;61.70;95108.72;5026195;28;20418;-76
2023/05/06 03:33:28;;;;;;;14.50;9.65;;;;;;;10.11;61.66;95115.84;5027789;28;20052;-73
2023/05/06 03:35:53;;;;;;;14.90;10.02;;;;;;;10.13;61.55;95121.69;5025293;28;20450;-74
2023/05/06 03:38:19;;;;;;;18.65;12.00;;;;;;;10.13;61.23;95116.19;5022706;28;20057;-74
2023/05/06 03:40:44;;;;;;;19.10;14.02;;;;;;;10.14;61.34;95119.72;5024114;28;20021;-73
2023/05/06 03:43:10;;;;;;;24.15;16.15;;;;;;;10.14;61.19;95125.19;5024700;28;20075;-74
2023/05/06 03:45:35;;;;;;;25.75;17.45;;;;;;;10.13;61.38;95112.66;5022805;28;20053;-73
2023/05/06 03:48:01;;;;;;;27.35;19.15;;;;;;;10.14;61.31;95114.97;5026875;28;20570;-76
2023/05/06 03:50:26;;;;;;;30.58;20.30;;;;;;;10.11;61.32;95121.34;5034920;28;20025;-74
2023/05/06 03:52:51;;;;;;;31.63;21.25;;;;;;;10.13;61.34;95116.19;5025442;28;20171;-75
2023/05/06 03:55:17;;;;;;;30.35;21.05;;;;;;;10.18;61.27;95115.69;5021989;28;20033;-75
2023/05/06 03:57:42;;;;;;;29.13;20.58;;;;;;;10.21;61.26;95128.56;5010805;28;20515;-75
2023/05/06 04:00:09;;;;;;;30.05;19.98;;;;;;;10.22;61.32;95127.34;5023664;28;20033;-74
2023/05/06 04:02:34;;;;;;;28.95;20.27;;;;;;;10.25;61.36;95129.25;5036479;28;20099;-75
2023/05/06 04:05:00;;;;;;;30.17;20.48;;;;;;;10.27;61.44;95120.63;5024112;28;20104;-72
2023/05/06 04:07:25;;;;;;;25.40;18.58;;;;;;;10.32;61.44;95134.59;5034175;28;20033;-74
2023/05/06 04:09:51;;;;;;;22.58;17.83;;;;;;;10.36;61.34;95129.78;5026518;28;20080;-75
2023/05/06 04:12:16;;;;;;;24.42;16.60;;;;;;;10.41;61.36;95141.47;5027360;28;20168;-75
2023/05/06 04:14:42;;;;;;;23.50;16.80;;;;;;;10.47;61.21;95150.72;5027575;28;20108;-74
2023/05/06 04:17:07;;;;;;;22.88;14.60;;;;;;;10.51;61.16;95143.94;5041269;28;20044;-73
2023/05/06 04:19:32;;;;;;;21.67;15.15;;;;;;;10.58;61.19;95146.50;5025308;28;20029;-73
2023/05/06 04:21:58;;;;;;;20.15;14.95;;;;;;;10.63;61.11;95139.72;5027581;28;20476;-74
2023/05/06 04:24:23;;;;;;;22.40;16.15;;;;;;;10.72;60.99;95150.84;5036263;28;20048;-73
2023/05/06 04:26:49;;;;;;;23.25;14.55;;;;;;;10.78;61.00;95145.59;5034777;28;20031;-74
2023/05/06 04:29:14;;;;;;;17.48;13.88;;;;;;;10.81;60.78;95140.03;5024530;28;20036;-76
2023/05/06 04:31:39;;;;;;;17.98;13.68;;;;;;;10.97;60.41;95152.97;5025601;28;20040;-75
2023/05/06 04:34:05;;;;;;;19.40;13.95;;;;;;;11.04;60.14;95150.00;5024645;28;20112;-76
2023/05/06 04:36:30;;;;;;;20.38;12.55;;;;;;;11.10;59.96;95150.25;5024879;28;20507;-74
2023/05/06 04:38:56;;;;;;;17.98;13.18;;;;;;;11.17;59.75;95150.81;5028116;28;20029;-74
2023/05/06 04:41:22;;;;;;;15.77;11.88;;;;;;;11.19;59.57;95147.66;5027615;28;20436;-74
2023/05/06 04:43:47;;;;;;;15.48;12.60;;;;;;;11.24;59.62;95149.88;5027254;28;20018;-74
2023/05/06 04:46:13;;;;;;;16.17;11.05;;;;;;;11.14;59.58;95139.94;5029102;28;20110;-74
2023/05/06 04:48:39;;;;;;;17.75;11.98;;;;;;;11.32;59.50;95156.72;5025112;28;20033;-74
2023/05/06 04:51:04;;;;;;;16.90;11.52;;;;;;;11.38;59.51;95154.97;5021211;28;20837;-74
2023/05/06 04:53:30;;;;;;;17.80;11.70;;;;;;;11.46;59.86;95157.50;5038606;28;20025;-74
2023/05/06 04:55:56;;;;;;;15.15;10.63;;;;;;;11.54;59.74;95162.38;5021445;28;20026;-74
2023/05/06 04:58:22;;;;;;;15.10;11.20;;;;;;;11.62;59.50;95158.19;5026141;28;20026;-73
2023/05/06 05:00:47;;;;;;;14.07;10.93;;;;;;;11.69;59.05;95149.72;5026469;28;20052;-73
2023/05/06 05:03:13;;;;;;;16.70;9.80;;;;;;;11.80;58.58;95160.44;5021663;28;20079;-74
2023/05/06 05:05:38;;;;;;;14.07;10.52;;;;;;;11.88;58.46;95164.56;5011069;28;20536;-74
2023/05/06 05:08:04;;;;;;;11.93;9.30;;;;;;;11.93;58.26;95161.25;5024903;28;20464;-73
2023/05/06 05:10:29;;;;;;;15.52;9.38;;;;;;;11.99;58.35;95158.72;5032975;28;20017;-73
2023/05/06 05:12:55;;;;;;;10.80;9.45;;;;;;;12.07;58.10;95164.78;5030980;28;20056;-73
2023/05/06 05:15:20;;;;;;;10.20;8.90;;;;;;;12.13;57.99;95176.78;5027579;28;20021;-74
2023/05/06 05:17:46;;;;;;;9.85;8.85;;;;;;;12.21;57.86;95167.06;5040206;28;20116;-73
2023/05/06 05:20:11;;;;;;;11.50;7.60;;;;;;;12.34;57.43;95176.13;5027896;28;20083;-74
2023/05/06 05:22:37;;;;;;;10.13;8.07;;;;;;;12.49;57.59;95176.44;5026973;28;20025;-73
2023/05/06 05:25:03;;;;;;;9.52;7.90;;;;;;;12.58;56.94;95175.78;5025342;28;20686;-73
2023/05/06 05:27:28;;;;;;;9.60;7.78;;;;;;;12.66;56.98;95188.09;5027502;28;20498;-73
2023/05/06 05:29:54;;;;;;;9.82;7.65;;;;;;;12.76;56.64;95181.47;5031213;28;20033;-72
2023/05/06 05:32:20;;;;;;;9.35;7.30;;;;;;;12.88;56.08;95180.66;5030258;28;20035;-74
2023/05/06 05:34:46;;;;;;;8.50;7.10;;;;;;;12.95;55.84;95172.13;5032081;28;20037;-73
2023/05/06 05:37:11;;;;;;;9.32;7.07;;;;;;;13.05;55.51;95166.69;5029778;28;20033;-73
2023/05/06 05:39:36;;;;;;;9.15;7.60;;;;;;;13.14;55.30;95169.53;5025092;28;20049;-74
2023/05/06 05:42:02;;;;;;;9.35;7.18;;;;;;;13.20;55.20;95170.50;5042850;28;20411;-74
2023/05/06 05:44:28;;;;;;;11.35;7.50;;;;;;;13.27;55.05;95167.53;5039723;28;20029;-73
2023/05/06 05:46:53;;;;;;;9.55;7.63;;;;;;;13.38;54.74;95167.16;5030452;28;20521;-73
2023/05/06 05:49:19;;;;;;;7.95;7.13;;;;;;;13.48;54.52;95169.53;5041926;28;20098;-72
2023/05/06 05:51:44;;;;;;;8.27;6.50;;;;;;;13.53;54.23;95168.94;5028983;28;20025;-75
2023/05/06 05:54:09;;;;;;;8.70;6.85;;;;;;;13.58;54.27;95170.34;5026664;28;20029;-72
2023/05/06 05:56:35;;;;;;;8.48;7.15;;;;;;;13.67;54.23;95170.41;5036505;28;20056;-73
2023/05/06 05:59:00;;;;;;;9.10;7.68;;;;;;;13.72;53.97;95182.88;5047428;28;20460;-73
2023/05/06 06:01:26;;;;;;;10.10;8.35;;;;;;;13.77;53.90;95174.00;5028364;28;20072;-73
2023/05/06 06:03:53;;;;;;;10.90;8.35;;;;;;;13.78;53.76;95170.00;5050926;28;20427;-74
2023/05/06 06:06:18;;;;;;;10.23;7.57;;;;;;;13.88;53.80;95179.91;5059129;28;20033;-74
2023/05/06 06:08:43;;;;;;;9.65;7.80;;;;;;;13.95;53.79;95176.84;5050011;28;20020;-74
2023/05/06 06:11:09;;;;;;;13.65;7.63;;;;;;;13.98;53.74;95187.00;5065488;28;20131;-74
2023/05/06 06:13:35;;;;;;;11.80;7.53;;;;;;;14.06;53.84;95190.28;5065166;28;20437;-74
2023/05/06 06:16:00;;;;;;;9.57;6.65;;;;;;;14.10;53.33;95185.34;5067404;28;20027;-75
2023/05/06 06:18:26;;;;;;;9.05;7.45;;;;;;;14.16;53.39;95182.78;5047189;28;20025;-76
2023/05/06 06:20:51;;;;;;;10.27;7.88;;;;;;;14.25;53.27;95191.13;5065255;28;20031;-74
2023/05/06 06:23:16;;;;;;;9.50;7.65;;;;;;;14.28;53.21;95184.69;5065884;28;20388;-75
2023/05/06 06:25:42;;;;;;;9.05;7.38;;;;;;;14.34;52.89;95188.41;5064707;28;20108;-74
2023/05/06 06:28:07;;;;;;;12.07;7.82;;;;;;;14.39;52.84;95185.00;5048692;28;20028;-75
2023/05/06 06:30:32;;;;;;;12.90;8.80;;;;;;;14.46;52.94;95186.75;5065336;28;20107;-75
2023/05/06 06:33:00;;;;;;;10.43;8.32;;;;;;;14.51;53.05;95181.41;5067182;28;20056;-74
2023/05/06 06:35:26;;;;;;;14.60;8.35;;;;;;;14.58;53.08;95180.34;5064754;28;20032;-74
2023/05/06 06:37:51;;;;;;;13.05;9.05;;;;;;;14.66;52.71;95178.84;5065646;28;20024;-74
2023/05/06 06:40:16;;;;;;;11.95;9.43;;;;;;;14.67;52.65;95188.66;5065219;28;20028;-75
2023/05/06 06:42:42;;;;;;;12.13;9.15;;;;;;;14.67;52.43;95187.91;5066330;28;20513;-73
2023/05/06 06:45:08;;;;;;;10.52;8.45;;;;;;;14.73;52.50;95189.59;5064794;28;20484;-73
2023/05/06 06:47:34;;;;;;;12.77;9.82;;;;;;;14.65;52.36;95185.59;5063571;28;20437;-77
2023/05/06 06:49:59;;;;;;;16.15;11.65;;;;;;;14.60;52.30;95195.25;5066908;28;20025;-77
2023/05/06 06:52:25;;;;;;;14.90;11.77;;;;;;;14.72;52.31;95184.53;5075008;28;20024;-78
2023/05/06 06:54:50;;;;;;;11.65;10.02;;;;;;;14.80;52.02;95196.88;5069365;28;20032;-76
2023/05/06 06:57:16;;;;;;;12.93;10.02;;;;;;;14.81;52.09;95192.88;5064674;28;20013;-74
2023/05/06 06:59:41;;;;;;;13.52;10.10;;;;;;;14.86;51.67;95195.03;5066455;28;20020;-74
2023/05/06 07:02:06;;;;;;;15.73;9.88;;;;;;;14.91;51.79;95205.50;5065086;28;20040;-75
2023/05/06 07:04:32;;;;;;;21.10;16.58;;;;;;;14.89;51.33;95202.41;5065462;28;20462;-74
2023/05/06 07:06:57;;;;;;;22.70;15.30;;;;;;;14.98;51.10;95201.66;5047840;28;20028;-75
2023/05/06 07:09:23;;;;;;;13.73;10.70;;;;;;;14.87;51.38;95197.34;5046670;28;20115;-74
2023/05/06 07:11:48;;;;;;;16.27;11.50;;;;;;;14.93;51.20;95203.03;5066386;28;20028;-74
2023/05/06 07:14:14;;;;;;;11.63;9.55;;;;;;;15.08;51.42;95206.75;5062816;28;20353;-75
2023/05/06 07:16:39;;;;;;;12.80;9.32;;;;;;;15.12;51.49;95206.59;5065921;28;20051;-75
2023/05/06 07:19:04;;;;;;;11.30;10.05;;;;;;;15.19;51.51;95217.34;5062768;28;20020;-75
2023/05/06 07:21:33;;;;;;;11.80;10.35;;;;;;;15.23;51.41;95212.44;5062907;28;20024;-75
2023/05/06 07:23:58;;;;;;;13.48;11.07;;;;;;;15.23;51.37;95206.13;5063706;28;20024;-75
2023/05/06 07:26:25;;;;;;;13.25;10.35;;;;;;;15.36;51.34;95212.28;5063065;28;20534;-75
2023/05/06 07:28:50;;;;;;;12.35;9.63;;;;;;;15.52;50.95;95209.22;5064484;28;20143;-75
2023/05/06 07:31:19;;;;;;;12.27;9.20;;;;;;;15.66;50.75;95219.72;5062381;28;20211;-74
2023/05/06 07:33:45;;;;;;;11.60;8.52;;;;;;;15.71;50.49;95220.31;5065669;28;20115;-74
2023/05/06 07:36:11;;;;;;;11.90;9.40;;;;;;;15.84;50.50;95218.91;5062472;28;20025;-74
2023/05/06 07:38:36;;;;;;;12.77;9.23;;;;;;;15.88;50.37;95218.75;5065397;28;20020;-75
2023/05/06 07:41:02;;;;;;;11.65;8.75;;;;;;;16.03;49.70;95219.66;5064786;28;20021;-74
2023/05/06 07:43:27;;;;;;;11.98;8.63;;;;;;;16.25;49.68;95218.69;5064597;28;20454;-74
2023/05/06 07:46:01;;;;;;;11.68;8.43;;;;;;;16.36;49.52;95208.63;5065180;28;20024;-74
2023/05/06 07:48:26;;;;;;;;;;;;;;;16.54;49.25;95220.88;5065157;28;20090;-75
2023/05/06 07:50:51;;;;;;;9.48;7.22;;;;;;;16.67;48.95;95218.66;5065653;28;19917;-75
2023/05/06 07:53:16;;;;;;;9.38;7.72;;;;;;;16.83;48.55;95232.19;5063922;28;20060;-75
2023/05/06 07:55:42;;;;;;;11.00;7.30;;;;;;;16.93;48.52;95221.78;5063978;28;20074;-75
2023/05/06 07:58:07;;;;;;;10.80;7.53;;;;;;;17.15;48.08;95211.16;5068353;28;20050;-76
2023/05/06 08:00:33;;;;;;;10.55;7.53;;;;;;;17.32;47.50;95219.84;5063521;28;20037;-74
2023/05/06 08:02:58;;;;;;;8.20;6.43;;;;;;;17.44;47.20;95218.81;5063528;28;20032;-75
2023/05/06 08:05:26;;;;;;;8.55;6.03;;;;;;;17.60;46.60;95214.06;5063078;28;20031;-75
2023/05/06 08:07:52;;;;;;;9.18;6.57;;;;;;;17.70;46.79;95215.53;5064021;28;20024;-75
2023/05/06 08:10:18;;;;;;;8.27;6.18;;;;;;;17.69;46.21;95209.19;5063261;28;20030;-75
2023/05/06 08:12:44;;;;;;;8.52;6.28;;;;;;;17.79;45.90;95209.91;5065033;28;20565;-75
2023/05/06 08:15:10;;;;;;;6.53;5.85;;;;;;;17.92;46.00;95215.19;5062219;28;20024;-74
2023/05/06 08:17:35;;;;;;;8.40;6.50;;;;;;;18.01;45.55;95210.31;5064826;28;20021;-75
2023/05/06 08:20:01;;;;;;;9.77;4.97;;;;;;;18.13;45.12;95214.06;5062491;28;20017;-74
2023/05/06 08:22:26;;;;;;;7.18;5.28;;;;;;;18.30;44.92;95215.13;5064176;28;20521;-75
2023/05/06 08:24:51;;;;;;;9.40;5.90;;;;;;;18.49;44.97;95215.66;5046525;28;20111;-75
2023/05/06 08:27:17;;;;;;;6.80;5.32;;;;;;;18.71;43.73;95214.50;5063543;28;20333;-75
2023/05/06 08:29:42;;;;;;;6.35;4.95;;;;;;;18.82;43.89;95218.22;5065142;28;20024;-75
2023/05/06 08:32:07;;;;;;;7.85;5.10;;;;;;;18.93;43.99;95214.84;5066026;28;20021;-74
2023/05/06 08:34:33;;;;;;;6.20;5.38;;;;;;;18.91;43.48;95211.75;5067551;28;20020;-75
2023/05/06 08:37:00;;;;;;;6.90;5.15;;;;;;;18.93;44.04;95203.69;5067882;28;20490;-75
2023/05/06 08:39:26;;;;;;;6.53;4.82;;;;;;;18.96;42.82;95213.09;5067426;28;20120;-75
2023/05/06 08:41:52;;;;;;;6.18;4.95;;;;;;;19.03;43.25;95210.66;5068484;28;20035;-76
2023/05/06 08:44:19;;;;;;;7.38;4.95;;;;;;;19.20;43.22;95204.53;5067189;28;20028;-75
2023/05/06 08:46:45;;;;;;;6.53;5.25;;;;;;;19.34;43.06;95209.28;5067722;28;20029;-75
2023/05/06 08:49:11;;;;;;;6.93;4.63;;;;;;;19.53;42.61;95204.19;5066039;28;20072;-76
2023/05/06 08:51:37;;;;;;;5.72;5.10;;;;;;;19.48;42.52;95207.66;5068886;28;20388;-75
2023/05/06 08:54:03;;;;;;;5.70;4.78;;;;;;;19.66;42.22;95201.06;5065484;28;20522;-74
2023/05/06 08:56:30;;;;;;;6.57;5.10;;;;;;;19.72;41.98;95202.63;5067235;28;20038;-75
2023/05/06 08:58:57;;;;;;;6.50;4.85;;;;;;;19.73;41.99;95197.84;5065832;28;20027;-75
2023/05/06 09:01:25;;;;;;;6.97;5.63;;;;;;;19.95;41.81;95209.22;5066315;28;20052;-75
2023/05/06 09:03:51;;;;;;;8.52;4.80;;;;;;;20.16;40.86;95199.53;5071404;28;20033;-75
2023/05/06 09:06:16;;;;;;;7.75;4.13;;;;;;;20.30;40.05;95194.31;5068411;28;20029;-76
2023/05/06 09:08:49;;;;;;;7.35;4.60;;;;;;;20.33;39.83;95188.53;5067484;28;20094;-75
2023/05/06 09:11:22;;;;;;;7.38;4.15;;;;;;;20.20;39.18;95190.19;5065490;28;20479;-75
2023/05/06 09:13:50;;;;;;;5.10;3.78;;;;;;;20.21;39.70;95188.94;5068176;28;20419;-74
2023/05/06 09:16:29;;;;;;;4.65;3.75;;;;;;;20.58;38.71;95183.41;5067475;28;20029;-76
2023/05/06 09:18:54;;;;;;;6.93;5.72;;;;;;;20.50;39.10;95179.53;5065572;28;20058;-77
2023/05/06 09:21:20;;;;;;;9.02;6.05;;;;;;;20.28;39.49;95177.31;5049864;28;20025;-75
2023/05/06 09:23:45;;;;;;;22.02;19.83;;;;;;;20.65;39.10;95174.59;5064762;28;20021;-76
2023/05/06 09:26:11;;;;;;;12.57;11.20;;;;;;;20.91;38.80;95166.09;5067164;28;20021;-79
2023/05/06 09:28:36;;;;;;;13.60;12.18;;;;;;;21.32;38.54;95169.38;5065025;28;20082;-75
2023/05/06 09:31:02;;;;;;;12.48;10.20;;;;;;;21.40;37.99;95159.25;5066505;28;20024;-80
2023/05/06 09:33:27;;;;;;;11.13;6.93;;;;;;;21.53;37.70;95153.19;5066885;28;20020;-82
2023/05/06 09:35:53;;;;;;;11.90;9.48;;;;;;;21.76;37.40;95154.00;5070349;28;20020;-79
2023/05/06 09:38:18;;;;;;;12.80;10.35;;;;;;;21.94;37.35;95158.34;5071392;28;20483;-75
2023/05/06 09:40:44;;;;;;;7.43;6.15;;;;;;;22.11;36.54;95152.81;5065156;28;20028;-78
2023/05/06 09:43:09;;;;;;;8.38;6.25;;;;;;;22.14;36.17;95160.19;5067347;28;20036;-78
2023/05/06 09:45:35;;;;;;;8.48;6.47;;;;;;;22.27;35.93;95152.81;5064404;28;20028;-77
2023/05/06 09:48:01;;;;;;;8.80;6.80;;;;;;;22.38;35.41;95149.25;5067647;28;20132;-78
2023/05/06 09:50:26;;;;;;;6.82;6.13;;;;;;;22.41;35.81;95147.47;5066370;28;20560;-78
2023/05/06 09:52:54;;;;;;;7.78;5.43;;;;;;;22.68;35.66;95151.50;5049564;28;20028;-79
2023/05/06 09:55:20;;;;;;;6.95;4.85;;;;;;;22.70;35.29;95140.56;5066697;28;20477;-78
2023/05/06 09:57:49;;;;;;;7.70;4.88;;;;;;;22.94;34.79;95140.00;5065599;28;20016;-79
2023/05/06 10:00:15;;;;;;;7.78;5.15;;;;;;;22.84;35.08;95145.13;5067718;28;20494;-84
2023/05/06 10:02:46;;;;;;;6.38;5.30;;;;;;;22.72;35.22;95152.03;5047840;28;20068;-85
2023/05/06 10:05:12;;;;;;;5.78;4.75;;;;;;;22.69;35.37;95142.59;5066232;28;20043;-77
2023/05/06 10:07:38;;;;;;;5.55;4.85;;;;;;;22.58;35.13;95142.59;5065992;28;20024;-78
2023/05/06 10:10:06;;;;;;;4.90;4.40;;;;;;;22.70;34.77;95144.09;5070075;28;20121;-76
2023/05/06 10:12:31;;;;;;;7.15;3.70;;;;;;;21.77;35.08;95137.97;5066531;28;20405;-73
2023/05/06 10:14:57;;;;;;;5.90;5.30;;;;;;;21.91;36.07;95142.59;5066125;28;20017;-77
2023/05/06 10:17:26;;;;;;;7.57;4.97;;;;;;;21.99;36.20;95135.97;5065741;28;20352;-75
2023/05/06 10:19:54;;;;;;;7.13;4.40;;;;;;;22.01;35.83;95136.22;5064206;28;20531;-74
2023/05/06 10:22:38;;;;;;;4.78;4.07;;;;;;;21.88;35.14;95138.75;5066026;28;20016;-78
2023/05/06 10:25:15;;;;;;;5.32;4.63;;;;;;;21.74;35.98;95139.75;5063640;28;20193;-76
2023/05/06 10:27:42;;;;;;;5.25;4.57;;;;;;;21.67;36.60;95137.44;5066478;28;20121;-72
2023/05/06 10:30:08;;;;;;;5.88;4.00;;;;;;;21.47;36.61;95130.03;5048347;28;20025;-73
2023/05/06 10:32:34;;;;;;;7.35;3.65;;;;;;;21.34;37.03;95132.53;5064957;28;20137;-73
2023/05/06 10:35:09;;;;;;;8.55;4.47;;;;;;;21.13;36.23;95138.25;5065292;28;20499;-73
2023/05/06 10:37:36;;;;;;;6.28;4.00;;;;;;;20.99;35.76;95132.84;5063176;28;20039;-73
2023/05/06 10:40:03;;;;;;;5.25;3.65;;;;;;;20.88;35.30;95128.75;5065308;28;20032;-73
2023/05/06 10:42:33;;;;;;;4.93;3.88;;;;;;;20.83;35.73;95128.72;5049410;28;20021;-72
2023/05/06 10:45:05;;;;;;;6.32;3.65;;;;;;;20.82;35.68;95127.97;5041243;28;20033;-72
2023/05/06 10:47:56;;;;;;;4.93;4.15;;;;;;;20.84;35.51;95138.63;5043406;28;20514;-72
2023/05/06 10:50:25;;;;;;;5.43;3.50;;;;;;;21.04;34.55;95130.06;5043865;28;20558;-72
2023/05/06 10:52:55;;;;;;;4.57;3.70;;;;;;;21.18;35.32;95126.34;5046718;28;20523;-72
2023/05/06 10:55:28;;;;;;;6.45;3.40;;;;;;;21.29;35.38;95136.03;5042091;28;20021;-74
2023/05/06 10:58:14;;;;;;;5.40;3.80;;;;;;;21.36;34.27;95127.19;5044998;28;20128;-75
2023/05/06 11:00:40;;;;;;;7.28;4.05;;;;;;;21.07;34.78;95133.91;5046023;28;20037;-72
2023/05/06 11:03:09;;;;;;;5.55;3.55;;;;;;;20.93;35.83;95132.81;5044330;28;20040;-74
2023/05/06 11:05:51;;;;;;;5.75;3.45;;;;;;;21.12;35.41;95125.56;5045094;28;20087;-72
2023/05/06 11:08:26;;;;;;;3.80;3.30;;;;;;;21.30;35.24;95121.59;5042779;28;20052;-72
2023/05/06 11:10:54;;;;;;;7.15;4.20;;;;;;;21.48;34.95;95118.31;5045557;28;20033;-72
2023/05/06 11:13:25;;;;;;;5.57;3.45;;;;;;;21.61;34.27;95129.03;5043809;28;20126;-72
2023/05/06 11:15:51;;;;;;;5.68;3.30;;;;;;;21.80;33.51;95128.59;5046046;28;20036;-72
2023/05/06 11:18:26;;;;;;;4.00;3.30;;;;;;;21.83;32.74;95124.75;5045937;28;20052;-72
2023/05/06 11:21:03;;;;;;;4.30;3.05;;;;;;;21.75;33.05;95121.69;5043744;28;20091;-72
2023/05/06 11:23:52;;;;;;;8.30;4.07;;;;;;;21.72;33.22;95126.25;5046061;28;20029;-72